メインページ
METAR-TAF:

METAR-TAF

空港 :

ニノイ・アキノ国際空港

マニラ, フィリピン

緯度: 14-31N, 経度: 121-00E, 海抜: 14m

現時点の気象観測

当レポートは16分前の10:00(UTC)に作成
西の風 9kt
気温 27°C
湿度 100%
気圧 1005 hPa
視程10km以上
高度2200ftの雲は散在している
高度9000ftの千切れ雲あり

METAR: RPLL 181000Z 26009KT 9999 SCT022 BKN090 27/27 Q1005 NOSIG RMK A2968 FU SW

時間: 18:16 (10:16 UTC)

予報

当レポートは5時間16分前の05:00(UTC)に作成
予報は18日の 06時(UTC)から 19日の 12時(UTC)まで有効
西/南西の風 9kt
視程10km以上
高度2300ftの雲はほとんどない
高度10000ftの千切れ雲あり
18日の 06時(UTC)から 18日の 12時(UTC)まで一時的に
南西の風 18kt
視程: 8000m
高度2000ftの雲はほとんどない, 積乱雲.
高度2200ftの雲は散在している
高度9000ftの曇り
激しい雷雨, 小雨
18日の 12時(UTC)から 18日の 18時(UTC)まで一時的に
南/南西の風 7kt
視程: 9000m
高度2200ftの雲は散在している
高度9000ftの曇り
弱いにわか雨

TAF: RPLL 180500Z 1806/1912 24009KT 9999 FEW023 BKN100 TX31/1806Z TN26/1821Z TEMPO 1806/1812 22018KT 8000 -TSRA FEW020CB SCT022 OVC090 TEMPO 1812/1818 21007KT 9000 -SHRA SCT022 OVC090

4,000以上の空港の気象観測と天気予報(METAR報とTAF報)

利用可能な観測所は地図上に黄色い丸と赤い丸で示す。

丸の上にカーソルを重ねると観測所名を参照できる。

次にクリックすると気象観測と天気予報を参照できる。

マップの切り替え:黒色「×」印の緑ボタンをクリックして拡大、「-」印の緑ボタンをクリックして縮小、緑色の三角印をクリックして隣りの地図に切り替え


METAR-TAF: